sensor_id;sensor_type;location;lat;lon;timestamp;P1;durP1;ratioP1;P2;durP2;ratioP2
80229;SDS011;69540;42.136;24.742;2024-02-21T00:01:50;28.13;;;19.85;;
80229;SDS011;69540;42.136;24.742;2024-02-21T00:04:15;27.52;;;19.98;;
80229;SDS011;69540;42.136;24.742;2024-02-21T00:06:41;29.70;;;20.15;;
80229;SDS011;69540;42.136;24.742;2024-02-21T00:09:07;26.35;;;19.80;;
80229;SDS011;69540;42.136;24.742;2024-02-21T00:11:34;28.92;;;20.02;;
80229;SDS011;69540;42.136;24.742;2024-02-21T00:14:00;25.95;;;20.25;;
80229;SDS011;69540;42.136;24.742;2024-02-21T00:16:26;27.38;;;20.73;;
80229;SDS011;69540;42.136;24.742;2024-02-21T00:18:51;24.67;;;19.27;;
80229;SDS011;69540;42.136;24.742;2024-02-21T00:21:17;25.98;;;18.73;;
80229;SDS011;69540;42.136;24.742;2024-02-21T00:23:46;27.42;;;20.50;;
80229;SDS011;69540;42.136;24.742;2024-02-21T00:26:12;29.63;;;20.40;;
80229;SDS011;69540;42.136;24.742;2024-02-21T00:28:41;28.92;;;20.60;;
80229;SDS011;69540;42.136;24.742;2024-02-21T00:31:06;29.60;;;20.65;;
80229;SDS011;69540;42.136;24.742;2024-02-21T00:33:32;26.98;;;18.88;;
80229;SDS011;69540;42.136;24.742;2024-02-21T00:35:58;27.13;;;20.52;;
80229;SDS011;69540;42.136;24.742;2024-02-21T00:38:24;27.05;;;19.77;;
80229;SDS011;69540;42.136;24.742;2024-02-21T00:40:49;27.50;;;21.23;;
80229;SDS011;69540;42.136;24.742;2024-02-21T00:43:15;26.27;;;19.50;;
80229;SDS011;69540;42.136;24.742;2024-02-21T00:45:40;27.58;;;21.17;;
80229;SDS011;69540;42.136;24.742;2024-02-21T00:48:07;26.23;;;19.98;;
80229;SDS011;69540;42.136;24.742;2024-02-21T00:50:32;29.60;;;20.08;;
80229;SDS011;69540;42.136;24.742;2024-02-21T00:52:58;29.38;;;21.58;;
80229;SDS011;69540;42.136;24.742;2024-02-21T00:55:24;27.92;;;21.48;;
80229;SDS011;69540;42.136;24.742;2024-02-21T00:57:49;28.08;;;20.73;;
80229;SDS011;69540;42.136;24.742;2024-02-21T01:00:15;28.33;;;21.33;;
80229;SDS011;69540;42.136;24.742;2024-02-21T01:02:41;29.00;;;21.27;;
80229;SDS011;69540;42.136;24.742;2024-02-21T01:05:07;28.70;;;20.60;;
80229;SDS011;69540;42.136;24.742;2024-02-21T01:07:33;28.90;;;21.40;;
80229;SDS011;69540;42.136;24.742;2024-02-21T01:09:59;26.13;;;21.10;;
80229;SDS011;69540;42.136;24.742;2024-02-21T01:12:24;28.73;;;21.75;;
80229;SDS011;69540;42.136;24.742;2024-02-21T01:14:50;30.02;;;22.05;;
80229;SDS011;69540;42.136;24.742;2024-02-21T01:17:16;28.83;;;22.42;;
80229;SDS011;69540;42.136;24.742;2024-02-21T01:19:41;31.88;;;21.92;;
80229;SDS011;69540;42.136;24.742;2024-02-21T01:22:08;28.58;;;21.25;;
80229;SDS011;69540;42.136;24.742;2024-02-21T01:24:34;27.95;;;20.65;;
80229;SDS011;69540;42.136;24.742;2024-02-21T01:27:00;27.13;;;20.80;;
80229;SDS011;69540;42.136;24.742;2024-02-21T01:29:25;25.00;;;19.38;;
80229;SDS011;69540;42.136;24.742;2024-02-21T01:31:51;25.00;;;18.67;;
80229;SDS011;69540;42.136;24.742;2024-02-21T01:34:16;23.45;;;18.00;;
80229;SDS011;69540;42.136;24.742;2024-02-21T01:36:42;24.98;;;18.05;;
80229;SDS011;69540;42.136;24.742;2024-02-21T01:39:08;24.17;;;17.70;;
80229;SDS011;69540;42.136;24.742;2024-02-21T01:41:33;23.48;;;17.65;;
80229;SDS011;69540;42.136;24.742;2024-02-21T01:43:59;22.83;;;17.05;;
80229;SDS011;69540;42.136;24.742;2024-02-21T01:46:25;23.30;;;17.92;;
80229;SDS011;69540;42.136;24.742;2024-02-21T01:48:54;24.45;;;17.70;;
80229;SDS011;69540;42.136;24.742;2024-02-21T01:51:20;21.90;;;17.33;;
80229;SDS011;69540;42.136;24.742;2024-02-21T01:53:46;21.88;;;16.67;;
80229;SDS011;69540;42.136;24.742;2024-02-21T01:56:15;21.48;;;16.67;;
80229;SDS011;69540;42.136;24.742;2024-02-21T01:58:41;19.60;;;15.95;;
80229;SDS011;69540;42.136;24.742;2024-02-21T02:01:07;23.42;;;17.10;;
80229;SDS011;69540;42.136;24.742;2024-02-21T02:03:34;24.05;;;17.10;;
80229;SDS011;69540;42.136;24.742;2024-02-21T02:06:00;21.55;;;17.52;;
80229;SDS011;69540;42.136;24.742;2024-02-21T02:08:25;21.23;;;16.05;;
80229;SDS011;69540;42.136;24.742;2024-02-21T02:10:52;23.60;;;16.90;;
80229;SDS011;69540;42.136;24.742;2024-02-21T02:13:17;22.20;;;16.25;;
80229;SDS011;69540;42.136;24.742;2024-02-21T02:18:09;24.67;;;17.50;;
80229;SDS011;69540;42.136;24.742;2024-02-21T02:20:36;20.75;;;16.25;;
80229;SDS011;69540;42.136;24.742;2024-02-21T02:23:47;20.55;;;16.83;;
80229;SDS011;69540;42.136;24.742;2024-02-21T02:25:50;20.52;;;16.45;;
80229;SDS011;69540;42.136;24.742;2024-02-21T02:28:19;22.55;;;16.73;;
80229;SDS011;69540;42.136;24.742;2024-02-21T02:30:46;22.35;;;17.27;;
80229;SDS011;69540;42.136;24.742;2024-02-21T02:33:12;20.38;;;16.17;;
80229;SDS011;69540;42.136;24.742;2024-02-21T02:35:38;23.50;;;17.55;;
80229;SDS011;69540;42.136;24.742;2024-02-21T02:38:04;24.20;;;17.83;;
80229;SDS011;69540;42.136;24.742;2024-02-21T02:40:31;22.20;;;18.10;;
80229;SDS011;69540;42.136;24.742;2024-02-21T02:42:58;20.75;;;17.02;;
80229;SDS011;69540;42.136;24.742;2024-02-21T02:45:24;21.10;;;17.08;;
80229;SDS011;69540;42.136;24.742;2024-02-21T02:47:51;21.75;;;17.38;;
80229;SDS011;69540;42.136;24.742;2024-02-21T02:50:19;23.55;;;18.13;;
80229;SDS011;69540;42.136;24.742;2024-02-21T02:52:45;22.77;;;18.05;;
80229;SDS011;69540;42.136;24.742;2024-02-21T02:55:11;20.58;;;17.23;;
80229;SDS011;69540;42.136;24.742;2024-02-21T02:57:36;22.50;;;17.83;;
80229;SDS011;69540;42.136;24.742;2024-02-21T03:00:03;21.90;;;17.45;;
80229;SDS011;69540;42.136;24.742;2024-02-21T03:02:29;24.58;;;18.13;;
80229;SDS011;69540;42.136;24.742;2024-02-21T03:04:56;22.30;;;16.67;;
80229;SDS011;69540;42.136;24.742;2024-02-21T03:07:22;20.48;;;17.25;;
80229;SDS011;69540;42.136;24.742;2024-02-21T03:09:49;20.77;;;16.30;;
80229;SDS011;69540;42.136;24.742;2024-02-21T03:12:15;21.48;;;17.42;;
80229;SDS011;69540;42.136;24.742;2024-02-21T03:14:49;21.63;;;16.60;;
80229;SDS011;69540;42.136;24.742;2024-02-21T03:17:15;21.52;;;16.67;;
80229;SDS011;69540;42.136;24.742;2024-02-21T03:19:41;20.30;;;16.80;;
80229;SDS011;69540;42.136;24.742;2024-02-21T03:22:07;22.20;;;16.85;;
80229;SDS011;69540;42.136;24.742;2024-02-21T03:24:32;22.80;;;16.70;;
80229;SDS011;69540;42.136;24.742;2024-02-21T03:26:58;20.13;;;16.23;;
80229;SDS011;69540;42.136;24.742;2024-02-21T03:29:24;20.02;;;15.95;;
80229;SDS011;69540;42.136;24.742;2024-02-21T03:31:50;18.60;;;15.30;;
80229;SDS011;69540;42.136;24.742;2024-02-21T03:34:16;17.95;;;15.43;;
80229;SDS011;69540;42.136;24.742;2024-02-21T03:36:42;20.40;;;15.60;;
80229;SDS011;69540;42.136;24.742;2024-02-21T03:39:07;19.33;;;15.27;;
80229;SDS011;69540;42.136;24.742;2024-02-21T03:41:34;17.73;;;14.52;;
80229;SDS011;69540;42.136;24.742;2024-02-21T03:44:00;18.15;;;14.95;;
80229;SDS011;69540;42.136;24.742;2024-02-21T03:46:26;17.95;;;14.63;;
80229;SDS011;69540;42.136;24.742;2024-02-21T03:48:52;16.85;;;13.85;;
80229;SDS011;69540;42.136;24.742;2024-02-21T03:51:18;16.27;;;13.45;;
80229;SDS011;69540;42.136;24.742;2024-02-21T03:53:44;16.88;;;13.88;;
80229;SDS011;69540;42.136;24.742;2024-02-21T03:56:10;16.05;;;12.95;;
80229;SDS011;69540;42.136;24.742;2024-02-21T03:58:35;16.05;;;13.82;;
80229;SDS011;69540;42.136;24.742;2024-02-21T04:01:01;15.65;;;13.07;;
80229;SDS011;69540;42.136;24.742;2024-02-21T04:03:27;15.45;;;13.05;;
80229;SDS011;69540;42.136;24.742;2024-02-21T04:05:53;15.95;;;13.02;;
80229;SDS011;69540;42.136;24.742;2024-02-21T04:08:19;16.80;;;13.60;;
80229;SDS011;69540;42.136;24.742;2024-02-21T04:10:45;14.82;;;12.98;;
80229;SDS011;69540;42.136;24.742;2024-02-21T04:13:12;16.83;;;13.10;;
80229;SDS011;69540;42.136;24.742;2024-02-21T04:15:37;15.27;;;12.65;;
80229;SDS011;69540;42.136;24.742;2024-02-21T04:18:03;18.30;;;13.43;;
80229;SDS011;69540;42.136;24.742;2024-02-21T04:20:29;15.70;;;12.40;;
80229;SDS011;69540;42.136;24.742;2024-02-21T04:22:55;15.93;;;12.68;;
80229;SDS011;69540;42.136;24.742;2024-02-21T04:25:21;14.80;;;12.50;;
80229;SDS011;69540;42.136;24.742;2024-02-21T04:27:47;16.23;;;13.68;;
80229;SDS011;69540;42.136;24.742;2024-02-21T04:30:13;17.60;;;13.40;;
80229;SDS011;69540;42.136;24.742;2024-02-21T04:32:39;14.98;;;12.85;;
80229;SDS011;69540;42.136;24.742;2024-02-21T04:35:05;13.20;;;11.77;;
80229;SDS011;69540;42.136;24.742;2024-02-21T04:37:32;15.15;;;12.60;;
80229;SDS011;69540;42.136;24.742;2024-02-21T04:39:57;15.90;;;12.93;;
80229;SDS011;69540;42.136;24.742;2024-02-21T04:42:23;16.77;;;13.25;;
80229;SDS011;69540;42.136;24.742;2024-02-21T04:44:49;17.17;;;13.98;;
80229;SDS011;69540;42.136;24.742;2024-02-21T04:47:14;23.60;;;17.83;;
80229;SDS011;69540;42.136;24.742;2024-02-21T04:49:40;27.05;;;20.00;;
80229;SDS011;69540;42.136;24.742;2024-02-21T04:52:06;24.58;;;18.67;;
80229;SDS011;69540;42.136;24.742;2024-02-21T04:54:32;25.48;;;19.70;;
80229;SDS011;69540;42.136;24.742;2024-02-21T04:56:57;24.45;;;18.92;;
80229;SDS011;69540;42.136;24.742;2024-02-21T04:59:23;27.38;;;19.80;;
80229;SDS011;69540;42.136;24.742;2024-02-21T05:01:49;24.63;;;20.30;;
80229;SDS011;69540;42.136;24.742;2024-02-21T05:04:14;24.85;;;20.98;;
80229;SDS011;69540;42.136;24.742;2024-02-21T05:06:40;26.48;;;19.95;;
80229;SDS011;69540;42.136;24.742;2024-02-21T05:09:07;25.23;;;19.38;;
80229;SDS011;69540;42.136;24.742;2024-02-21T05:11:34;26.38;;;19.52;;
80229;SDS011;69540;42.136;24.742;2024-02-21T05:14:00;24.00;;;19.42;;
80229;SDS011;69540;42.136;24.742;2024-02-21T05:16:26;24.50;;;19.95;;
80229;SDS011;69540;42.136;24.742;2024-02-21T05:18:52;25.42;;;20.45;;
80229;SDS011;69540;42.136;24.742;2024-02-21T05:21:17;22.33;;;18.95;;
80229;SDS011;69540;42.136;24.742;2024-02-21T05:23:44;31.65;;;22.55;;
80229;SDS011;69540;42.136;24.742;2024-02-21T05:26:10;30.20;;;21.75;;
80229;SDS011;69540;42.136;24.742;2024-02-21T05:28:35;30.63;;;23.02;;
80229;SDS011;69540;42.136;24.742;2024-02-21T05:31:01;30.88;;;23.38;;
80229;SDS011;69540;42.136;24.742;2024-02-21T05:33:27;29.85;;;22.15;;
80229;SDS011;69540;42.136;24.742;2024-02-21T05:35:53;30.48;;;22.35;;
80229;SDS011;69540;42.136;24.742;2024-02-21T05:38:18;30.23;;;21.92;;
80229;SDS011;69540;42.136;24.742;2024-02-21T05:40:44;27.50;;;21.85;;
80229;SDS011;69540;42.136;24.742;2024-02-21T05:43:10;27.85;;;21.00;;
80229;SDS011;69540;42.136;24.742;2024-02-21T05:45:36;27.88;;;21.45;;
80229;SDS011;69540;42.136;24.742;2024-02-21T05:48:02;30.00;;;22.35;;
80229;SDS011;69540;42.136;24.742;2024-02-21T05:50:29;29.67;;;22.15;;
80229;SDS011;69540;42.136;24.742;2024-02-21T05:52:55;29.48;;;21.95;;
80229;SDS011;69540;42.136;24.742;2024-02-21T05:55:21;27.75;;;20.98;;
80229;SDS011;69540;42.136;24.742;2024-02-21T05:57:47;28.38;;;20.77;;
80229;SDS011;69540;42.136;24.742;2024-02-21T06:00:13;29.25;;;21.77;;
80229;SDS011;69540;42.136;24.742;2024-02-21T06:02:39;28.45;;;21.65;;
80229;SDS011;69540;42.136;24.742;2024-02-21T06:05:05;31.08;;;22.70;;
80229;SDS011;69540;42.136;24.742;2024-02-21T06:07:34;29.58;;;21.40;;
80229;SDS011;69540;42.136;24.742;2024-02-21T06:10:03;29.67;;;21.42;;
80229;SDS011;69540;42.136;24.742;2024-02-21T06:12:29;30.23;;;21.60;;
80229;SDS011;69540;42.136;24.742;2024-02-21T06:14:55;28.05;;;21.02;;
80229;SDS011;69540;42.136;24.742;2024-02-21T06:17:20;27.25;;;20.65;;
80229;SDS011;69540;42.136;24.742;2024-02-21T06:19:46;27.88;;;21.13;;
80229;SDS011;69540;42.136;24.742;2024-02-21T06:22:12;25.67;;;20.73;;
80229;SDS011;69540;42.136;24.742;2024-02-21T06:24:38;31.42;;;22.25;;
80229;SDS011;69540;42.136;24.742;2024-02-21T06:27:04;29.52;;;22.90;;
80229;SDS011;69540;42.136;24.742;2024-02-21T06:29:33;30.02;;;22.15;;
80229;SDS011;69540;42.136;24.742;2024-02-21T06:31:59;33.60;;;22.15;;
80229;SDS011;69540;42.136;24.742;2024-02-21T06:34:26;28.00;;;21.95;;
80229;SDS011;69540;42.136;24.742;2024-02-21T06:36:51;27.02;;;20.85;;
80229;SDS011;69540;42.136;24.742;2024-02-21T06:39:17;23.27;;;18.35;;
80229;SDS011;69540;42.136;24.742;2024-02-21T06:41:43;23.25;;;18.92;;
80229;SDS011;69540;42.136;24.742;2024-02-21T06:44:09;23.33;;;18.40;;
80229;SDS011;69540;42.136;24.742;2024-02-21T06:46:35;25.45;;;18.88;;
80229;SDS011;69540;42.136;24.742;2024-02-21T06:49:01;24.70;;;18.00;;
80229;SDS011;69540;42.136;24.742;2024-02-21T06:51:30;21.90;;;17.30;;
80229;SDS011;69540;42.136;24.742;2024-02-21T06:53:55;22.80;;;18.17;;
80229;SDS011;69540;42.136;24.742;2024-02-21T06:56:24;20.88;;;16.92;;
80229;SDS011;69540;42.136;24.742;2024-02-21T06:58:56;21.17;;;16.20;;
80229;SDS011;69540;42.136;24.742;2024-02-21T07:01:21;19.38;;;15.30;;
80229;SDS011;69540;42.136;24.742;2024-02-21T07:03:47;20.10;;;16.10;;
80229;SDS011;69540;42.136;24.742;2024-02-21T07:06:13;18.70;;;16.20;;
80229;SDS011;69540;42.136;24.742;2024-02-21T07:08:39;18.88;;;15.82;;
80229;SDS011;69540;42.136;24.742;2024-02-21T07:11:05;18.63;;;15.30;;
80229;SDS011;69540;42.136;24.742;2024-02-21T07:13:30;21.27;;;14.40;;
80229;SDS011;69540;42.136;24.742;2024-02-21T07:15:57;20.08;;;14.57;;
80229;SDS011;69540;42.136;24.742;2024-02-21T07:18:23;19.35;;;14.48;;
80229;SDS011;69540;42.136;24.742;2024-02-21T07:20:50;18.70;;;14.25;;
80229;SDS011;69540;42.136;24.742;2024-02-21T07:23:16;17.25;;;13.90;;
80229;SDS011;69540;42.136;24.742;2024-02-21T07:25:42;18.63;;;15.27;;
80229;SDS011;69540;42.136;24.742;2024-02-21T07:28:08;18.55;;;15.32;;
80229;SDS011;69540;42.136;24.742;2024-02-21T07:30:33;21.55;;;15.23;;
80229;SDS011;69540;42.136;24.742;2024-02-21T07:32:59;18.05;;;14.88;;
80229;SDS011;69540;42.136;24.742;2024-02-21T07:35:25;18.83;;;15.05;;
80229;SDS011;69540;42.136;24.742;2024-02-21T07:37:51;18.27;;;14.77;;
80229;SDS011;69540;42.136;24.742;2024-02-21T07:40:16;20.23;;;16.48;;
80229;SDS011;69540;42.136;24.742;2024-02-21T07:42:43;21.27;;;15.70;;
80229;SDS011;69540;42.136;24.742;2024-02-21T07:45:09;19.52;;;15.85;;
80229;SDS011;69540;42.136;24.742;2024-02-21T07:47:35;22.38;;;16.27;;
80229;SDS011;69540;42.136;24.742;2024-02-21T07:50:02;18.33;;;13.88;;
80229;SDS011;69540;42.136;24.742;2024-02-21T07:52:28;17.90;;;13.60;;
80229;SDS011;69540;42.136;24.742;2024-02-21T07:54:54;15.93;;;12.65;;
80229;SDS011;69540;42.136;24.742;2024-02-21T07:57:20;16.90;;;12.60;;
80229;SDS011;69540;42.136;24.742;2024-02-21T07:59:46;15.52;;;11.63;;
80229;SDS011;69540;42.136;24.742;2024-02-21T08:02:15;14.95;;;12.02;;
80229;SDS011;69540;42.136;24.742;2024-02-21T08:04:41;17.35;;;12.40;;
80229;SDS011;69540;42.136;24.742;2024-02-21T08:07:08;16.45;;;12.30;;
80229;SDS011;69540;42.136;24.742;2024-02-21T08:09:34;16.50;;;12.75;;
80229;SDS011;69540;42.136;24.742;2024-02-21T08:12:01;16.05;;;13.18;;
80229;SDS011;69540;42.136;24.742;2024-02-21T08:14:27;15.23;;;12.63;;
80229;SDS011;69540;42.136;24.742;2024-02-21T08:16:53;13.80;;;11.65;;
80229;SDS011;69540;42.136;24.742;2024-02-21T08:19:20;12.25;;;10.30;;
80229;SDS011;69540;42.136;24.742;2024-02-21T08:21:47;11.52;;;9.75;;
80229;SDS011;69540;42.136;24.742;2024-02-21T08:24:13;12.60;;;9.00;;
80229;SDS011;69540;42.136;24.742;2024-02-21T08:26:42;9.07;;;8.13;;
80229;SDS011;69540;42.136;24.742;2024-02-21T08:29:10;9.90;;;8.52;;
80229;SDS011;69540;42.136;24.742;2024-02-21T08:31:36;10.00;;;8.05;;
80229;SDS011;69540;42.136;24.742;2024-02-21T08:34:02;8.60;;;7.70;;
80229;SDS011;69540;42.136;24.742;2024-02-21T08:36:32;9.27;;;8.35;;
80229;SDS011;69540;42.136;24.742;2024-02-21T08:38:59;11.05;;;8.80;;
80229;SDS011;69540;42.136;24.742;2024-02-21T08:41:25;11.75;;;8.63;;
80229;SDS011;69540;42.136;24.742;2024-02-21T08:43:51;9.65;;;8.15;;
80229;SDS011;69540;42.136;24.742;2024-02-21T08:46:19;9.40;;;8.40;;
80229;SDS011;69540;42.136;24.742;2024-02-21T08:48:53;10.15;;;8.48;;
80229;SDS011;69540;42.136;24.742;2024-02-21T08:51:19;10.15;;;7.70;;
80229;SDS011;69540;42.136;24.742;2024-02-21T08:53:46;9.48;;;8.32;;
80229;SDS011;69540;42.136;24.742;2024-02-21T08:56:14;9.52;;;8.52;;
80229;SDS011;69540;42.136;24.742;2024-02-21T08:58:40;9.00;;;7.75;;
80229;SDS011;69540;42.136;24.742;2024-02-21T09:01:06;11.27;;;9.02;;
80229;SDS011;69540;42.136;24.742;2024-02-21T09:03:38;9.35;;;8.40;;
80229;SDS011;69540;42.136;24.742;2024-02-21T09:06:07;9.45;;;8.43;;
80229;SDS011;69540;42.136;24.742;2024-02-21T09:08:34;10.77;;;8.98;;
80229;SDS011;69540;42.136;24.742;2024-02-21T09:11:00;8.95;;;8.05;;
80229;SDS011;69540;42.136;24.742;2024-02-21T09:13:26;9.93;;;8.48;;
80229;SDS011;69540;42.136;24.742;2024-02-21T09:15:52;11.32;;;8.50;;
80229;SDS011;69540;42.136;24.742;2024-02-21T09:18:18;10.30;;;7.90;;
80229;SDS011;69540;42.136;24.742;2024-02-21T09:20:44;9.10;;;7.95;;
80229;SDS011;69540;42.136;24.742;2024-02-21T09:23:10;8.90;;;8.00;;
80229;SDS011;69540;42.136;24.742;2024-02-21T09:25:36;10.30;;;8.15;;
80229;SDS011;69540;42.136;24.742;2024-02-21T09:28:02;11.65;;;8.20;;
80229;SDS011;69540;42.136;24.742;2024-02-21T09:30:28;7.72;;;6.95;;
80229;SDS011;69540;42.136;24.742;2024-02-21T09:32:55;8.48;;;7.40;;
80229;SDS011;69540;42.136;24.742;2024-02-21T09:35:23;8.63;;;7.70;;
80229;SDS011;69540;42.136;24.742;2024-02-21T09:37:51;8.13;;;6.97;;
80229;SDS011;69540;42.136;24.742;2024-02-21T09:40:17;7.72;;;6.93;;
80229;SDS011;69540;42.136;24.742;2024-02-21T09:42:44;8.60;;;6.25;;
80229;SDS011;69540;42.136;24.742;2024-02-21T09:45:22;7.65;;;6.53;;
80229;SDS011;69540;42.136;24.742;2024-02-21T09:50:41;6.78;;;6.03;;
80229;SDS011;69540;42.136;24.742;2024-02-21T09:53:09;6.65;;;6.03;;
80229;SDS011;69540;42.136;24.742;2024-02-21T09:55:38;8.40;;;6.10;;
80229;SDS011;69540;42.136;24.742;2024-02-21T09:58:05;6.82;;;6.13;;
80229;SDS011;69540;42.136;24.742;2024-02-21T10:00:32;6.10;;;5.50;;
80229;SDS011;69540;42.136;24.742;2024-02-21T10:02:58;6.22;;;5.60;;
80229;SDS011;69540;42.136;24.742;2024-02-21T10:05:24;5.88;;;5.28;;
80229;SDS011;69540;42.136;24.742;2024-02-21T10:07:53;6.43;;;5.75;;
80229;SDS011;69540;42.136;24.742;2024-02-21T10:10:20;6.45;;;5.85;;
80229;SDS011;69540;42.136;24.742;2024-02-21T10:12:53;6.72;;;5.50;;
80229;SDS011;69540;42.136;24.742;2024-02-21T10:15:25;6.40;;;5.43;;
80229;SDS011;69540;42.136;24.742;2024-02-21T10:18:00;6.57;;;5.85;;
80229;SDS011;69540;42.136;24.742;2024-02-21T10:20:31;7.35;;;6.25;;
80229;SDS011;69540;42.136;24.742;2024-02-21T10:23:00;6.65;;;5.63;;
80229;SDS011;69540;42.136;24.742;2024-02-21T10:25:28;5.97;;;5.40;;
80229;SDS011;69540;42.136;24.742;2024-02-21T10:27:54;6.57;;;5.38;;
80229;SDS011;69540;42.136;24.742;2024-02-21T10:30:20;7.75;;;5.40;;
80229;SDS011;69540;42.136;24.742;2024-02-21T10:32:52;5.85;;;5.30;;
80229;SDS011;69540;42.136;24.742;2024-02-21T10:35:29;6.20;;;5.60;;
80229;SDS011;69540;42.136;24.742;2024-02-21T10:37:56;5.75;;;4.70;;
80229;SDS011;69540;42.136;24.742;2024-02-21T10:40:23;6.53;;;5.80;;
80229;SDS011;69540;42.136;24.742;2024-02-21T10:42:59;6.00;;;5.40;;
80229;SDS011;69540;42.136;24.742;2024-02-21T10:45:28;5.40;;;4.90;;
80229;SDS011;69540;42.136;24.742;2024-02-21T10:47:55;9.65;;;5.50;;
80229;SDS011;69540;42.136;24.742;2024-02-21T10:50:24;11.10;;;5.35;;
80229;SDS011;69540;42.136;24.742;2024-02-21T10:52:53;8.55;;;5.63;;
80229;SDS011;69540;42.136;24.742;2024-02-21T10:55:29;5.38;;;4.88;;
80229;SDS011;69540;42.136;24.742;2024-02-21T10:58:04;5.07;;;4.40;;
80229;SDS011;69540;42.136;24.742;2024-02-21T11:00:30;5.90;;;5.00;;
80229;SDS011;69540;42.136;24.742;2024-02-21T11:02:57;6.03;;;5.43;;
80229;SDS011;69540;42.136;24.742;2024-02-21T11:05:24;6.03;;;4.88;;
80229;SDS011;69540;42.136;24.742;2024-02-21T11:07:50;7.50;;;5.18;;
80229;SDS011;69540;42.136;24.742;2024-02-21T11:10:20;9.43;;;5.18;;
80229;SDS011;69540;42.136;24.742;2024-02-21T11:15:17;18.40;;;5.65;;
80229;SDS011;69540;42.136;24.742;2024-02-21T11:17:53;10.02;;;5.60;;
80229;SDS011;69540;42.136;24.742;2024-02-21T11:20:20;5.63;;;4.95;;
80229;SDS011;69540;42.136;24.742;2024-02-21T11:22:56;6.88;;;5.25;;
80229;SDS011;69540;42.136;24.742;2024-02-21T11:25:22;8.88;;;5.00;;
80229;SDS011;69540;42.136;24.742;2024-02-21T11:27:48;4.75;;;4.30;;
80229;SDS011;69540;42.136;24.742;2024-02-21T11:30:13;4.80;;;4.40;;
80229;SDS011;69540;42.136;24.742;2024-02-21T11:32:41;4.18;;;3.88;;
80229;SDS011;69540;42.136;24.742;2024-02-21T11:35:06;5.03;;;4.53;;
80229;SDS011;69540;42.136;24.742;2024-02-21T11:37:34;4.97;;;4.55;;
80229;SDS011;69540;42.136;24.742;2024-02-21T11:40:03;4.85;;;4.25;;
80229;SDS011;69540;42.136;24.742;2024-02-21T11:42:31;8.32;;;4.70;;
80229;SDS011;69540;42.136;24.742;2024-02-21T11:44:57;5.88;;;4.25;;
80229;SDS011;69540;42.136;24.742;2024-02-21T11:47:24;5.72;;;5.22;;
80229;SDS011;69540;42.136;24.742;2024-02-21T11:49:50;4.82;;;4.32;;
80229;SDS011;69540;42.136;24.742;2024-02-21T11:52:19;4.85;;;4.45;;
80229;SDS011;69540;42.136;24.742;2024-02-21T11:54:49;4.85;;;4.28;;
80229;SDS011;69540;42.136;24.742;2024-02-21T11:57:16;4.25;;;3.85;;
80229;SDS011;69540;42.136;24.742;2024-02-21T11:59:42;4.60;;;4.20;;
80229;SDS011;69540;42.136;24.742;2024-02-21T12:02:10;4.40;;;4.00;;
80229;SDS011;69540;42.136;24.742;2024-02-21T12:04:36;4.07;;;3.75;;
80229;SDS011;69540;42.136;24.742;2024-02-21T12:07:02;5.57;;;3.92;;
80229;SDS011;69540;42.136;24.742;2024-02-21T12:09:31;4.93;;;3.97;;
80229;SDS011;69540;42.136;24.742;2024-02-21T12:14:29;4.22;;;3.83;;
80229;SDS011;69540;42.136;24.742;2024-02-21T12:16:56;4.53;;;3.67;;
80229;SDS011;69540;42.136;24.742;2024-02-21T12:19:22;4.07;;;3.65;;
80229;SDS011;69540;42.136;24.742;2024-02-21T12:21:48;3.90;;;3.47;;
80229;SDS011;69540;42.136;24.742;2024-02-21T12:24:23;3.75;;;3.42;;
80229;SDS011;69540;42.136;24.742;2024-02-21T12:26:50;3.65;;;3.28;;
80229;SDS011;69540;42.136;24.742;2024-02-21T12:29:17;3.10;;;2.80;;
80229;SDS011;69540;42.136;24.742;2024-02-21T12:31:43;3.72;;;3.17;;
80229;SDS011;69540;42.136;24.742;2024-02-21T12:34:10;3.85;;;3.55;;
80229;SDS011;69540;42.136;24.742;2024-02-21T12:36:36;4.07;;;3.78;;
80229;SDS011;69540;42.136;24.742;2024-02-21T12:39:07;4.00;;;3.60;;
80229;SDS011;69540;42.136;24.742;2024-02-21T12:41:34;3.97;;;3.40;;
80229;SDS011;69540;42.136;24.742;2024-02-21T12:44:03;4.38;;;3.97;;
80229;SDS011;69540;42.136;24.742;2024-02-21T12:46:31;4.15;;;3.72;;
80229;SDS011;69540;42.136;24.742;2024-02-21T12:49:01;4.20;;;3.80;;
80229;SDS011;69540;42.136;24.742;2024-02-21T12:51:28;3.22;;;3.03;;
80229;SDS011;69540;42.136;24.742;2024-02-21T12:53:54;3.08;;;2.88;;
80229;SDS011;69540;42.136;24.742;2024-02-21T12:56:20;3.22;;;2.95;;
80229;SDS011;69540;42.136;24.742;2024-02-21T12:58:46;3.38;;;3.10;;
80229;SDS011;69540;42.136;24.742;2024-02-21T13:01:12;3.17;;;2.97;;
80229;SDS011;69540;42.136;24.742;2024-02-21T13:03:37;3.22;;;3.03;;
80229;SDS011;69540;42.136;24.742;2024-02-21T13:06:04;2.70;;;2.50;;
80229;SDS011;69540;42.136;24.742;2024-02-21T13:08:30;2.88;;;2.67;;
80229;SDS011;69540;42.136;24.742;2024-02-21T13:10:56;2.83;;;2.60;;
80229;SDS011;69540;42.136;24.742;2024-02-21T13:13:22;2.83;;;2.63;;
80229;SDS011;69540;42.136;24.742;2024-02-21T13:15:47;3.70;;;2.90;;
80229;SDS011;69540;42.136;24.742;2024-02-21T13:18:13;3.05;;;2.75;;
80229;SDS011;69540;42.136;24.742;2024-02-21T13:20:39;3.50;;;3.20;;
80229;SDS011;69540;42.136;24.742;2024-02-21T13:23:04;2.78;;;2.58;;
80229;SDS011;69540;42.136;24.742;2024-02-21T13:25:30;2.70;;;2.50;;
80229;SDS011;69540;42.136;24.742;2024-02-21T13:27:56;2.75;;;2.55;;
80229;SDS011;69540;42.136;24.742;2024-02-21T13:30:22;3.03;;;2.58;;
80229;SDS011;69540;42.136;24.742;2024-02-21T13:32:47;2.80;;;2.60;;
80229;SDS011;69540;42.136;24.742;2024-02-21T13:35:14;2.50;;;2.33;;
80229;SDS011;69540;42.136;24.742;2024-02-21T13:37:40;3.10;;;2.90;;
80229;SDS011;69540;42.136;24.742;2024-02-21T13:40:06;3.47;;;3.15;;
80229;SDS011;69540;42.136;24.742;2024-02-21T13:42:38;3.70;;;2.72;;
80229;SDS011;69540;42.136;24.742;2024-02-21T13:45:05;3.00;;;2.80;;
80229;SDS011;69540;42.136;24.742;2024-02-21T13:47:32;2.80;;;2.60;;
80229;SDS011;69540;42.136;24.742;2024-02-21T13:50:06;2.63;;;2.42;;
80229;SDS011;69540;42.136;24.742;2024-02-21T13:52:39;2.90;;;2.60;;
80229;SDS011;69540;42.136;24.742;2024-02-21T13:55:05;2.50;;;2.40;;
80229;SDS011;69540;42.136;24.742;2024-02-21T13:57:34;3.47;;;2.60;;
80229;SDS011;69540;42.136;24.742;2024-02-21T14:00:00;3.53;;;3.22;;
80229;SDS011;69540;42.136;24.742;2024-02-21T14:02:26;2.78;;;2.58;;
80229;SDS011;69540;42.136;24.742;2024-02-21T14:04:51;2.80;;;2.60;;
80229;SDS011;69540;42.136;24.742;2024-02-21T14:07:17;2.38;;;2.28;;
80229;SDS011;69540;42.136;24.742;2024-02-21T14:09:43;2.20;;;2.10;;
80229;SDS011;69540;42.136;24.742;2024-02-21T14:12:08;2.33;;;2.15;;
80229;SDS011;69540;42.136;24.742;2024-02-21T14:14:35;2.50;;;2.30;;
80229;SDS011;69540;42.136;24.742;2024-02-21T14:17:01;2.40;;;2.28;;
80229;SDS011;69540;42.136;24.742;2024-02-21T14:19:28;3.90;;;3.38;;
80229;SDS011;69540;42.136;24.742;2024-02-21T14:21:55;7.13;;;4.85;;
80229;SDS011;69540;42.136;24.742;2024-02-21T14:24:21;8.05;;;4.95;;
80229;SDS011;69540;42.136;24.742;2024-02-21T14:26:47;7.55;;;4.88;;